Time;durP1;ratioP1;P1;durP2;ratioP2;P2;SDS_P1;SDS_P2;PMS_P1;PMS_P2;Temp;Humidity;BMP_temperature;BMP_pressure;BME280_temperature;BME280_humidity;BME280_pressure;Samples;Min_cycle;Max_cycle;Signal;HPM_P1;HPM_P2
2024/03/08 00:04:02;;;;;;;16.50;4.33;;;;;;;;;;10496932;28;20055;-74
2024/03/08 00:09:07;;;;;;;;;;;;;;;;;;10505760;28;20397;-74
2024/03/08 00:14:10;;;;;;;10.20;3.97;;;;;;;;;;10495075;28;19920;-74
2024/03/08 00:19:14;;;;;;;11.10;4.73;;;;;;;;;;10504274;28;20063;-77
2024/03/08 00:24:17;;;;;;;4.32;2.47;;;;;;;;;;10498691;28;20036;-78
2024/03/08 00:29:21;;;;;;;17.83;5.03;;;;;;;;;;10486269;28;20044;-75
2024/03/08 00:34:25;;;;;;;16.98;6.68;;;;;;;;;;10516992;28;20479;-75
2024/03/08 00:39:28;;;;;;;12.87;5.10;;;;;;;;;;10513844;28;20040;-75
2024/03/08 00:44:31;;;;;;;12.13;4.70;;;;;;;;;;10495525;28;20405;-75
2024/03/08 00:49:36;;;;;;;11.83;3.07;;;;;;;;;;10516398;28;20123;-74
2024/03/08 00:54:39;;;;;;;11.63;3.43;;;;;;;;;;10508235;28;20119;-74
2024/03/08 00:59:41;;;;;;;18.53;5.63;;;;;;;;;;10502160;28;20537;-74
2024/03/08 01:04:47;;;;;;;11.60;3.67;;;;;;;;;;10506585;28;20049;-74
2024/03/08 01:09:49;;;;;;;12.43;3.77;;;;;;;;;;10511453;28;20039;-74
2024/03/08 01:14:52;;;;;;;12.07;3.83;;;;;;;;;;10503941;28;20040;-74
2024/03/08 01:19:56;;;;;;;10.70;4.03;;;;;;;;;;10512350;28;20032;-75
2024/03/08 01:24:58;;;;;;;;;;;;;;;;;;10497828;28;20036;-74
2024/03/08 01:30:01;;;;;;;5.60;2.33;;;;;;;;;;10503892;28;19982;-74
2024/03/08 01:35:09;;;;;;;14.27;4.90;;;;;;;;;;10516747;28;20511;-74
2024/03/08 01:40:12;;;;;;;12.47;4.17;;;;;;;;;;10517807;28;20052;-72
2024/03/08 01:45:16;;;;;;;13.60;5.03;;;;;;;;;;10490791;28;20111;-75
2024/03/08 01:55:41;;;;;;;9.83;3.73;;;;;;;;;;10501715;28;20053;-74
2024/03/08 02:00:45;;;;;;;14.43;5.40;;;;;;;;;;10507316;28;20032;-74
2024/03/08 02:05:49;;;;;;;12.50;4.40;;;;;;;;;;10513942;28;21309;-75
2024/03/08 02:10:52;;;;;;;8.50;3.13;;;;;;;;;;10506863;28;20051;-75
2024/03/08 02:15:56;;;;;;;9.63;4.03;;;;;;;;;;10504290;28;20036;-74
2024/03/08 02:21:00;;;;;;;11.30;3.67;;;;;;;;;;10502999;28;20429;-74
2024/03/08 02:26:04;;;;;;;;;;;;;;;;;;10507534;28;20051;-74
2024/03/08 02:31:08;;;;;;;18.13;7.53;;;;;;;;;;10508543;28;20366;-74
2024/03/08 02:36:12;;;;;;;3.45;2.83;;;;;;;;;;10496390;28;20101;-77
2024/03/08 02:41:15;;;;;;;17.13;5.97;;;;;;;;;;10506612;28;20226;-73
2024/03/08 02:46:18;;;;;;;6.77;2.63;;;;;;;;;;10509529;28;20048;-74
2024/03/08 02:51:22;;;;;;;10.03;4.30;;;;;;;;;;10506080;28;20067;-74
2024/03/08 02:56:26;;;;;;;11.75;3.38;;;;;;;;;;10508548;28;20130;-74
2024/03/08 03:01:29;;;;;;;7.20;3.55;;;;;;;;;;10498775;28;20123;-74
2024/03/08 03:06:33;;;;;;;5.63;2.60;;;;;;;;;;10483614;28;21951;-74
2024/03/08 03:11:36;;;;;;;12.97;4.00;;;;;;;;;;10510415;28;20111;-73
2024/03/08 03:16:39;;;;;;;17.73;5.50;;;;;;;;;;10510417;28;20056;-73
2024/03/08 03:21:44;;;;;;;18.40;5.63;;;;;;;;;;10509043;28;20154;-74
2024/03/08 03:26:48;;;;;;;9.50;4.60;;;;;;;;;;10506679;28;20092;-74
2024/03/08 03:31:52;;;;;;;11.23;4.33;;;;;;;;;;10492885;28;20497;-74
2024/03/08 03:36:57;;;;;;;17.17;5.73;;;;;;;;;;10496037;28;20627;-73
2024/03/08 03:42:01;;;;;;;18.97;6.13;;;;;;;;;;10505294;28;20063;-74
2024/03/08 03:47:06;;;;;;;7.53;3.00;;;;;;;;;;10502207;28;20079;-74
2024/03/08 03:52:11;;;;;;;13.13;4.50;;;;;;;;;;10512177;28;20110;-75
2024/03/08 03:57:13;;;;;;;11.90;4.07;;;;;;;;;;10502111;28;20041;-74
2024/03/08 04:02:16;;;;;;;8.13;3.93;;;;;;;;;;10499014;28;20135;-73
2024/03/08 04:07:20;;;;;;;11.27;4.70;;;;;;;;;;10506914;28;20041;-74
2024/03/08 04:12:23;;;;;;;;;;;;;;;;;;10513678;28;20111;-75
2024/03/08 04:17:26;;;;;;;6.27;3.17;;;;;;;;;;10511864;28;19928;-74
2024/03/08 04:22:30;;;;;;;15.33;5.50;;;;;;;;;;10521686;28;20059;-74
2024/03/08 04:27:32;;;;;;;;;;;;;;;;;;10509038;28;20497;-74
2024/03/08 04:32:35;;;;;;;6.53;3.13;;;;;;;;;;10507857;28;19924;-75
2024/03/08 04:37:40;;;;;;;15.63;5.57;;;;;;;;;;10507493;28;20077;-74
2024/03/08 04:42:42;;;;;;;;;;;;;;;;;;10514465;28;20370;-75
2024/03/08 04:47:45;;;;;;;5.30;2.10;;;;;;;;;;10488000;28;19932;-75
2024/03/08 04:52:50;;;;;;;14.60;5.67;;;;;;;;;;10507409;28;20521;-75
2024/03/08 04:57:52;;;;;;;6.55;3.25;;;;;;;;;;10521309;28;20060;-74
2024/03/08 05:02:55;;;;;;;16.07;5.70;;;;;;;;;;10510719;28;20039;-75
2024/03/08 05:08:01;;;;;;;12.23;5.57;;;;;;;;;;10510783;28;20366;-75
2024/03/08 05:13:04;;;;;;;11.90;5.47;;;;;;;;;;10514945;28;20447;-77
2024/03/08 05:18:07;;;;;;;26.03;9.73;;;;;;;;;;10503954;28;20037;-75
2024/03/08 05:23:11;;;;;;;;;;;;;;;;;;10505737;28;20048;-74
2024/03/08 05:28:15;;;;;;;12.03;4.07;;;;;;;;;;10497774;28;20007;-75
2024/03/08 05:33:19;;;;;;;21.77;7.93;;;;;;;;;;10511525;28;20082;-75
2024/03/08 05:38:22;;;;;;;9.75;5.18;;;;;;;;;;10511873;28;20640;-74
2024/03/08 05:43:26;;;;;;;15.67;5.57;;;;;;;;;;10506587;28;20527;-74
2024/03/08 05:48:29;;;;;;;14.35;5.10;;;;;;;;;;10490434;28;20075;-74
2024/03/08 05:53:32;;;;;;;9.43;4.80;;;;;;;;;;10508864;28;20512;-74
2024/03/08 05:58:36;;;;;;;17.80;7.60;;;;;;;;;;10502845;28;20036;-74
2024/03/08 06:03:44;;;;;;;8.45;3.63;;;;;;;;;;10512827;28;20493;-74
2024/03/08 06:08:48;;;;;;;20.97;8.67;;;;;;;;;;10519385;28;20044;-76
2024/03/08 06:13:59;;;;;;;23.25;5.75;;;;;;;;;;10513726;28;20573;-76
2024/03/08 06:19:03;;;;;;;21.93;8.23;;;;;;;;;;10511089;28;20055;-74
2024/03/08 06:24:06;;;;;;;16.13;6.13;;;;;;;;;;10507679;28;20047;-74
2024/03/08 06:29:10;;;;;;;18.10;6.90;;;;;;;;;;10504629;28;20040;-75
2024/03/08 06:34:15;;;;;;;13.50;6.55;;;;;;;;;;10519275;28;20044;-76
2024/03/08 06:39:18;;;;;;;19.80;7.83;;;;;;;;;;10518582;28;20067;-74
2024/03/08 06:44:22;;;;;;;9.67;3.47;;;;;;;;;;10509392;28;20079;-75
2024/03/08 06:49:26;;;;;;;10.17;4.20;;;;;;;;;;10509925;28;20238;-75
2024/03/08 06:54:33;;;;;;;22.50;7.40;;;;;;;;;;10506092;28;20044;-74
2024/03/08 06:59:37;;;;;;;13.13;6.07;;;;;;;;;;10507162;28;20138;-74
2024/03/08 07:04:39;;;;;;;;;;;;;;;;;;10507961;28;20477;-75
2024/03/08 07:09:45;;;;;;;24.08;9.05;;;;;;;;;;10496143;28;19924;-74
2024/03/08 07:14:50;;;;;;;13.35;3.83;;;;;;;;;;10496034;28;20039;-75
2024/03/08 07:19:53;;;;;;;27.10;11.05;;;;;;;;;;10509467;28;20097;-75
2024/03/08 07:25:15;;;;;;;23.93;7.60;;;;;;;;;;10501754;28;20091;-75
2024/03/08 07:35:44;;;;;;;13.98;5.63;;;;;;;;;;10494911;28;20071;-76
2024/03/08 07:40:47;;;;;;;9.07;3.33;;;;;;;;;;10494498;28;20048;-77
2024/03/08 07:45:52;;;;;;;16.52;5.38;;;;;;;;;;10500051;28;20535;-76
2024/03/08 07:50:55;;;;;;;13.75;6.68;;;;;;;;;;10501999;28;20069;-76
2024/03/08 07:55:59;;;;;;;17.33;7.35;;;;;;;;;;10485000;28;20044;-77
2024/03/08 08:01:04;;;;;;;20.40;7.05;;;;;;;;;;10504001;28;20040;-78
2024/03/08 08:06:08;;;;;;;21.08;8.40;;;;;;;;;;10512247;28;20433;-76
2024/03/08 08:11:11;;;;;;;21.33;7.23;;;;;;;;;;10499969;28;20075;-77
2024/03/08 08:16:15;;;;;;;20.52;7.68;;;;;;;;;;10495519;28;20147;-77
2024/03/08 08:21:19;;;;;;;21.65;9.10;;;;;;;;;;10502876;28;20036;-76
2024/03/08 08:26:21;;;;;;;22.57;8.93;;;;;;;;;;10498411;28;20472;-76
2024/03/08 08:31:26;;;;;;;22.85;9.18;;;;;;;;;;10496572;28;20040;-77
2024/03/08 08:36:29;;;;;;;21.67;9.57;;;;;;;;;;10500236;28;20086;-76
2024/03/08 08:41:33;;;;;;;22.65;10.70;;;;;;;;;;10495495;28;20268;-79
2024/03/08 08:46:37;;;;;;;24.60;11.23;;;;;;;;;;10497053;28;20055;-76
2024/03/08 08:51:49;;;;;;;20.75;10.38;;;;;;;;;;10493450;28;20082;-77
2024/03/08 08:56:51;;;;;;;20.48;11.75;;;;;;;;;;10502784;28;20470;-77
2024/03/08 09:01:56;;;;;;;22.20;10.35;;;;;;;;;;10510507;28;20033;-78
2024/03/08 09:06:59;;;;;;;21.65;11.48;;;;;;;;;;10510216;28;20096;-78
2024/03/08 09:12:02;;;;;;;24.30;11.10;;;;;;;;;;10506744;28;20059;-76
2024/03/08 09:17:08;;;;;;;19.65;11.45;;;;;;;;;;10504297;28;20486;-76
2024/03/08 09:22:11;;;;;;;19.50;10.55;;;;;;;;;;10500158;28;20266;-77
2024/03/08 09:27:14;;;;;;;18.92;10.60;;;;;;;;;;10508713;28;20052;-77
2024/03/08 09:32:18;;;;;;;21.17;11.77;;;;;;;;;;10504096;28;20469;-78
2024/03/08 09:37:20;;;;;;;24.27;12.63;;;;;;;;;;10507635;28;20105;-77
2024/03/08 09:42:24;;;;;;;24.52;14.07;;;;;;;;;;10505131;28;20539;-78
2024/03/08 09:47:33;;;;;;;24.80;14.50;;;;;;;;;;10513224;28;20408;-79
2024/03/08 09:52:37;;;;;;;21.70;13.65;;;;;;;;;;10498231;28;20631;-78
2024/03/08 09:57:42;;;;;;;22.08;12.85;;;;;;;;;;10507872;28;20043;-78
2024/03/08 10:02:47;;;;;;;19.95;12.10;;;;;;;;;;10504964;28;20085;-77
2024/03/08 10:07:49;;;;;;;19.88;12.63;;;;;;;;;;10508197;28;20117;-79
2024/03/08 10:12:53;;;;;;;19.20;11.27;;;;;;;;;;10500847;28;20706;-77
2024/03/08 10:17:57;;;;;;;18.10;10.57;;;;;;;;;;10506680;28;20051;-79
2024/03/08 10:23:00;;;;;;;18.27;10.50;;;;;;;;;;10498591;28;20044;-79
2024/03/08 10:28:12;;;;;;;18.40;11.00;;;;;;;;;;10500243;28;20044;-78
2024/03/08 10:33:17;;;;;;;20.85;11.85;;;;;;;;;;10497009;28;20063;-78
2024/03/08 10:38:22;;;;;;;20.00;11.95;;;;;;;;;;10497323;28;20055;-79
2024/03/08 10:43:28;;;;;;;19.42;12.13;;;;;;;;;;10502654;28;20075;-79
2024/03/08 10:48:33;;;;;;;19.17;11.93;;;;;;;;;;10497569;28;20036;-79
2024/03/08 10:53:45;;;;;;;17.58;11.18;;;;;;;;;;10497867;28;20198;-78
2024/03/08 10:58:48;;;;;;;19.35;11.07;;;;;;;;;;10495597;28;20036;-79
2024/03/08 11:03:53;;;;;;;17.95;11.27;;;;;;;;;;10501154;28;20029;-78
2024/03/08 11:08:58;;;;;;;20.45;12.52;;;;;;;;;;10507195;28;20056;-78
2024/03/08 11:14:01;;;;;;;18.63;11.48;;;;;;;;;;10494184;28;20063;-79
2024/03/08 11:19:23;;;;;;;19.92;12.65;;;;;;;;;;10490696;28;20413;-78
2024/03/08 11:24:28;;;;;;;18.95;10.95;;;;;;;;;;10487874;28;20969;-78
2024/03/08 11:29:39;;;;;;;17.67;11.60;;;;;;;;;;10490061;28;20078;-78
2024/03/08 11:34:49;;;;;;;19.45;10.90;;;;;;;;;;10484080;28;20044;-78
2024/03/08 11:39:52;;;;;;;17.00;10.43;;;;;;;;;;10503169;28;20047;-78
2024/03/08 11:44:55;;;;;;;15.23;9.35;;;;;;;;;;10482139;28;20037;-78
2024/03/08 11:50:00;;;;;;;18.48;11.32;;;;;;;;;;10511923;28;20040;-78
2024/03/08 11:55:06;;;;;;;16.13;10.18;;;;;;;;;;10519607;28;20503;-78
2024/03/08 12:00:22;;;;;;;19.08;11.27;;;;;;;;;;10503251;28;20044;-78
2024/03/08 12:10:59;;;;;;;17.30;10.77;;;;;;;;;;10253061;23;20361;-85
2024/03/08 12:16:04;;;;;;;18.70;10.35;;;;;;;;;;10240007;28;20074;-85
2024/03/08 12:21:09;;;;;;;18.10;10.98;;;;;;;;;;10236838;28;20209;-84
2024/03/08 12:26:17;;;;;;;16.83;9.48;;;;;;;;;;10231032;28;20051;-85
2024/03/08 12:31:25;;;;;;;18.23;10.27;;;;;;;;;;10238046;28;20065;-84
2024/03/08 12:36:30;;;;;;;21.40;10.75;;;;;;;;;;10244623;28;20498;-85
2024/03/08 12:41:45;;;;;;;19.70;10.68;;;;;;;;;;10240134;28;20503;-84
2024/03/08 12:46:51;;;;;;;18.25;9.90;;;;;;;;;;10251971;28;20073;-84
2024/03/08 12:51:58;;;;;;;19.80;11.00;;;;;;;;;;10236387;28;20050;-84
2024/03/08 12:57:04;;;;;;;18.60;10.43;;;;;;;;;;10240465;28;20094;-84
2024/03/08 13:02:11;;;;;;;16.98;9.25;;;;;;;;;;10229758;28;20567;-84
2024/03/08 13:07:16;;;;;;;18.30;10.15;;;;;;;;;;10231604;28;20050;-83
2024/03/08 13:12:21;;;;;;;17.05;9.70;;;;;;;;;;10227553;28;20066;-85
2024/03/08 13:17:24;;;;;;;15.70;9.13;;;;;;;;;;10231864;28;20085;-85
2024/03/08 13:22:28;;;;;;;14.77;8.20;;;;;;;;;;10223568;28;20078;-84
2024/03/08 13:27:33;;;;;;;14.85;7.80;;;;;;;;;;10230294;28;20050;-84
2024/03/08 13:32:39;;;;;;;16.23;8.48;;;;;;;;;;10233471;28;20104;-83
2024/03/08 13:37:42;;;;;;;19.30;8.32;;;;;;;;;;10230599;28;20507;-83
2024/03/08 13:42:48;;;;;;;18.27;8.55;;;;;;;;;;10230359;28;20436;-83
2024/03/08 13:47:52;;;;;;;17.40;8.52;;;;;;;;;;10238073;28;20043;-83
2024/03/08 13:52:55;;;;;;;19.38;9.15;;;;;;;;;;10234144;28;20071;-83
2024/03/08 13:58:00;;;;;;;14.10;7.60;;;;;;;;;;10237998;28;20058;-84
2024/03/08 14:03:06;;;;;;;12.70;7.30;;;;;;;;;;10233664;28;20348;-84
2024/03/08 14:08:09;;;;;;;12.30;6.60;;;;;;;;;;10228146;28;20442;-83
2024/03/08 14:13:15;;;;;;;15.85;7.45;;;;;;;;;;10228964;28;20119;-84
2024/03/08 14:18:18;;;;;;;17.27;7.88;;;;;;;;;;10229238;28;20153;-85
2024/03/08 14:23:22;;;;;;;14.68;7.60;;;;;;;;;;10231481;28;20039;-84
2024/03/08 14:28:27;;;;;;;15.93;7.93;;;;;;;;;;10237881;28;20094;-84
2024/03/08 14:33:29;;;;;;;15.00;7.68;;;;;;;;;;10251179;28;20040;-83
2024/03/08 14:38:32;;;;;;;16.70;7.57;;;;;;;;;;10232557;28;20071;-83
2024/03/08 14:43:39;;;;;;;12.65;6.43;;;;;;;;;;10225869;28;20043;-85
2024/03/08 14:48:41;;;;;;;15.90;7.40;;;;;;;;;;10229705;28;20075;-83
2024/03/08 14:53:45;;;;;;;17.30;7.10;;;;;;;;;;10236369;28;20472;-83
2024/03/08 14:58:51;;;;;;;16.55;7.25;;;;;;;;;;10222639;28;20053;-82
2024/03/08 15:03:56;;;;;;;15.15;7.32;;;;;;;;;;10236474;28;20048;-83
2024/03/08 15:08:59;;;;;;;15.93;7.18;;;;;;;;;;10248824;28;20579;-84
2024/03/08 15:14:03;;;;;;;15.32;7.70;;;;;;;;;;10248418;28;20047;-83
2024/03/08 15:19:06;;;;;;;14.27;5.57;;;;;;;;;;10256281;28;20051;-83
2024/03/08 15:24:14;;;;;;;16.97;5.73;;;;;;;;;;10245091;28;20043;-82
2024/03/08 15:29:26;;;;;;;16.58;7.47;;;;;;;;;;10226147;28;20043;-83
2024/03/08 15:34:31;;;;;;;17.25;6.10;;;;;;;;;;10220868;28;20498;-82
2024/03/08 15:39:36;;;;;;;10.05;4.70;;;;;;;;;;10234455;28;20047;-82
2024/03/08 15:44:44;;;;;;;13.48;5.85;;;;;;;;;;10225538;28;20042;-82
2024/03/08 15:49:52;;;;;;;10.52;4.20;;;;;;;;;;10227401;28;20511;-82
2024/03/08 15:54:55;;;;;;;17.15;6.60;;;;;;;;;;10222034;28;20043;-83
2024/03/08 16:00:00;;;;;;;11.07;5.03;;;;;;;;;;10216779;28;20098;-82
2024/03/08 16:05:06;;;;;;;13.40;4.93;;;;;;;;;;10227666;28;20147;-82
2024/03/08 16:10:11;;;;;;;13.40;5.47;;;;;;;;;;10228302;28;20046;-81
2024/03/08 16:15:16;;;;;;;15.93;4.93;;;;;;;;;;10218924;28;20063;-85
2024/03/08 16:20:21;;;;;;;14.00;5.68;;;;;;;;;;10232552;28;20090;-85
2024/03/08 16:25:25;;;;;;;13.80;5.97;;;;;;;;;;10237121;28;20035;-82
2024/03/08 16:30:32;;;;;;;;;;;;;;;;;;10237119;28;22015;-81
2024/03/08 16:35:43;;;;;;;16.13;5.97;;;;;;;;;;10226308;28;20382;-83
2024/03/08 16:40:47;;;;;;;16.52;6.90;;;;;;;;;;10245926;28;20050;-83
2024/03/08 16:45:53;;;;;;;17.92;6.40;;;;;;;;;;10230956;28;20165;-83
2024/03/08 16:50:58;;;;;;;16.17;5.25;;;;;;;;;;10232659;28;20047;-81
2024/03/08 16:56:00;;;;;;;;;;;;;;;;;;10230326;28;20425;-85
2024/03/08 17:01:06;;;;;;;;;;;;;;;;;;10233119;28;19930;-83
2024/03/08 17:06:11;;;;;;;15.73;5.85;;;;;;;;;;10237915;28;20447;-84
2024/03/08 17:11:15;;;;;;;16.48;5.90;;;;;;;;;;10228195;28;20043;-83
2024/03/08 17:16:24;;;;;;;18.13;5.88;;;;;;;;;;10227905;28;20334;-84
2024/03/08 17:21:33;;;;;;;19.25;7.03;;;;;;;;;;10238569;28;20039;-83
2024/03/08 17:26:36;;;;;;;20.13;7.13;;;;;;;;;;10230526;28;20039;-83
2024/03/08 17:31:39;;;;;;;20.10;7.13;;;;;;;;;;10234671;28;20054;-83
2024/03/08 17:36:47;;;;;;;15.35;6.28;;;;;;;;;;10244747;28;20103;-89
2024/03/08 17:41:51;;;;;;;14.57;5.70;;;;;;;;;;10244036;28;20053;-88
2024/03/08 17:46:54;;;;;;;;;;;;;;;;;;10238782;28;20134;-88
2024/03/08 17:52:02;;;;;;;13.45;4.97;;;;;;;;;;10238599;28;19936;-84
2024/03/08 17:57:06;;;;;;;17.27;6.38;;;;;;;;;;10235161;28;20038;-85
2024/03/08 18:02:13;;;;;;;19.45;6.72;;;;;;;;;;10239293;28;20051;-85
2024/03/08 18:07:17;;;;;;;22.75;7.45;;;;;;;;;;10234059;28;20170;-85
2024/03/08 18:12:22;;;;;;;23.00;7.43;;;;;;;;;;10234251;28;20094;-84
2024/03/08 18:17:25;;;;;;;19.20;6.60;;;;;;;;;;10237785;28;20515;-83
2024/03/08 18:22:33;;;;;;;22.77;7.77;;;;;;;;;;10230041;28;20067;-83
2024/03/08 18:27:36;;;;;;;14.82;5.28;;;;;;;;;;10237300;28;20071;-84
2024/03/08 18:32:39;;;;;;;19.92;7.13;;;;;;;;;;10231763;28;20431;-84
2024/03/08 18:37:46;;;;;;;14.85;5.53;;;;;;;;;;10240977;28;20472;-83
2024/03/08 18:42:51;;;;;;;16.27;6.25;;;;;;;;;;10241511;28;20043;-83
2024/03/08 18:47:56;;;;;;;15.68;6.07;;;;;;;;;;10231878;28;20043;-82
2024/03/08 18:53:06;;;;;;;18.88;6.65;;;;;;;;;;10224891;28;20049;-83
2024/03/08 18:58:10;;;;;;;16.13;5.72;;;;;;;;;;10246014;28;20451;-82
2024/03/08 19:03:13;;;;;;;11.20;4.63;;;;;;;;;;10274368;28;20094;-84
2024/03/08 19:08:19;;;;;;;17.45;6.57;;;;;;;;;;10266369;28;20302;-83
2024/03/08 19:13:23;;;;;;;20.50;6.78;;;;;;;;;;10254313;28;20046;-83
2024/03/08 19:18:28;;;;;;;16.63;5.90;;;;;;;;;;10266329;28;20082;-83
2024/03/08 19:23:35;;;;;;;19.27;6.43;;;;;;;;;;10267267;28;20141;-84
2024/03/08 19:28:39;;;;;;;;;;;;;;;;;;10268773;28;20387;-83
2024/03/08 19:33:42;;;;;;;16.47;6.40;;;;;;;;;;10277438;28;19930;-85
2024/03/08 19:38:46;;;;;;;15.48;6.35;;;;;;;;;;10272937;28;20066;-84
2024/03/08 19:43:49;;;;;;;15.68;5.20;;;;;;;;;;10275522;28;20046;-83
2024/03/08 19:48:56;;;;;;;17.27;6.00;;;;;;;;;;10273321;28;20150;-85
2024/03/08 19:54:07;;;;;;;14.07;5.82;;;;;;;;;;10277881;28;20103;-83
2024/03/08 19:59:10;;;;;;;15.75;6.10;;;;;;;;;;10280105;28;20086;-85
2024/03/08 20:04:13;;;;;;;17.17;6.15;;;;;;;;;;10280048;28;20055;-84
2024/03/08 20:09:24;;;;;;;18.58;6.55;;;;;;;;;;10283175;28;20658;-86
2024/03/08 20:14:31;;;;;;;15.32;5.68;;;;;;;;;;10271966;28;20066;-85
2024/03/08 20:19:36;;;;;;;15.20;6.10;;;;;;;;;;10258606;28;20073;-85
2024/03/08 20:24:42;;;;;;;18.95;5.60;;;;;;;;;;10263920;28;20058;-85
2024/03/08 20:29:47;;;;;;;16.23;5.88;;;;;;;;;;10272364;28;20051;-85
2024/03/08 20:34:50;;;;;;;15.50;6.10;;;;;;;;;;10306296;28;20043;-84
2024/03/08 20:39:57;;;;;;;14.55;5.45;;;;;;;;;;10320726;28;20050;-84
2024/03/08 20:45:04;;;;;;;17.60;5.93;;;;;;;;;;10310695;28;20090;-86
2024/03/08 20:50:10;;;;;;;20.20;5.45;;;;;;;;;;10295710;28;20070;-85
2024/03/08 20:55:23;;;;;;;16.20;6.05;;;;;;;;;;10270628;28;20067;-83
2024/03/08 21:05:50;;;;;;;11.50;4.95;;;;;;;;;;10291200;28;20114;-84
2024/03/08 21:10:54;;;;;;;16.55;5.45;;;;;;;;;;10288063;28;20047;-84
2024/03/08 21:15:59;;;;;;;11.88;5.07;;;;;;;;;;10290523;28;20051;-84
2024/03/08 21:21:07;;;;;;;19.10;5.45;;;;;;;;;;10286895;28;20054;-84
2024/03/08 21:26:14;;;;;;;15.00;5.55;;;;;;;;;;10270652;28;20739;-84
2024/03/08 21:36:37;;;;;;;5.32;2.25;;;;;;;;;;10297440;28;20054;-84
2024/03/08 21:41:48;;;;;;;10.60;4.38;;;;;;;;;;10300598;28;20039;-85
2024/03/08 21:46:58;;;;;;;9.50;4.63;;;;;;;;;;10293686;28;20103;-86
2024/03/08 21:52:05;;;;;;;16.08;5.53;;;;;;;;;;10294919;28;20057;-82
2024/03/08 21:57:10;;;;;;;13.18;4.88;;;;;;;;;;10305646;28;20034;-86
2024/03/08 22:02:15;;;;;;;14.05;5.32;;;;;;;;;;10287668;28;20059;-83
2024/03/08 22:07:18;;;;;;;;;;;;;;;;;;10311792;28;20035;-83
2024/03/08 22:12:27;;;;;;;12.32;4.07;;;;;;;;;;10308149;28;19922;-83
2024/03/08 22:17:34;;;;;;;15.10;4.97;;;;;;;;;;10306920;28;20043;-84
2024/03/08 22:22:37;;;;;;;10.32;4.78;;;;;;;;;;10316749;28;20047;-83
2024/03/08 22:27:43;;;;;;;18.13;5.32;;;;;;;;;;10281832;28;20043;-87
2024/03/08 22:32:47;;;;;;;9.75;4.05;;;;;;;;;;10299355;28;20058;-86
2024/03/08 22:37:52;;;;;;;12.73;5.25;;;;;;;;;;10298498;28;20046;-87
2024/03/08 22:43:10;;;;;;;12.75;5.10;;;;;;;;;;10263524;28;20058;-88
2024/03/08 22:48:13;;;;;;;13.75;4.68;;;;;;;;;;10262545;28;20117;-86
2024/03/08 22:53:22;;;;;;;12.73;4.85;;;;;;;;;;10283269;28;20083;-87
2024/03/08 22:58:27;;;;;;;17.40;4.82;;;;;;;;;;10280345;28;20483;-87
2024/03/08 23:03:34;;;;;;;10.82;4.18;;;;;;;;;;10267888;28;20050;-87
2024/03/08 23:08:37;;;;;;;12.85;4.75;;;;;;;;;;10290337;28;20046;-87
2024/03/08 23:13:45;;;;;;;14.77;4.68;;;;;;;;;;10287212;28;20058;-84
2024/03/08 23:18:51;;;;;;;13.93;5.45;;;;;;;;;;10290440;28;20070;-85
2024/03/08 23:23:55;;;;;;;13.63;5.72;;;;;;;;;;10282613;28;20466;-84
2024/03/08 23:29:03;;;;;;;12.07;4.40;;;;;;;;;;10275321;28;20038;-85
2024/03/08 23:34:07;;;;;;;14.05;4.82;;;;;;;;;;10282986;28;20034;-85
2024/03/08 23:39:11;;;;;;;13.38;5.07;;;;;;;;;;10249459;28;20035;-84
2024/03/08 23:44:19;;;;;;;10.43;4.82;;;;;;;;;;10268131;28;20047;-84
2024/03/08 23:49:22;;;;;;;11.30;4.50;;;;;;;;;;10274258;28;20039;-85
2024/03/08 23:54:27;;;;;;;15.88;5.05;;;;;;;;;;10271899;28;20110;-85
2024/03/08 23:59:31;;;;;;;12.60;4.05;;;;;;;;;;10268619;28;20086;-83
